KVCT - Victoria Rgnl, TX, US

Issued at 2320 UTC 14 Aug 2020
Updated at 0103 UTC 15 Aug 2020
Potential Impact None Slight Moderate High
Time0051Z 15/02Z 15/03Z 15/04Z 15/05Z 15/06Z 15/07Z 15/08Z 15/09Z 15/10Z 15/11Z 15/12Z 15/13Z 15/14Z>>
Type OBS PRVL PRVL PRVL PRVL PRVL PRVL PRVL PRVL PRVL PRVL PRVL PRVL PRVL
VIS 10 >6 >6 >6 >6 >6 >6 >6 5 5 5 5 5 >6
CIG -- -- -- -- -- -- -- -- -- -- -- -- -- --
Cover CLR SKC SKC SKC SKC SKC SKC SKC FEW FEW FEW FEW FEW FEW
FltCat VFR VFR VFR VFR VFR VFR VFR VFR MVFR MVFR MVFR MVFR MVFR VFR
WX -- -- -- -- -- -- -- -- BR BR BR BR BR --
WDir 160 170 170 170 170 170 170 170 VRB VRB VRB VRB VRB 210
WSpd 13 10 10 10 10 10 10 10 3 3 3 3 3 8
WGst -- -- -- -- -- -- -- -- -- -- -- -- -- --
Raw TAF
KVCT 142320Z 1500/1524 16010G20KT P6SM SKC
  FM150200 17010KT P6SM SKC
  FM150900 VRB03KT 5SM BR FEW020
  FM151400 21008KT P6SM FEW030
  FM151900 17010G15KT P6SM FEW050


Raw METAR
KVCT 150051Z 16013KT 10SM CLR 31/22 A2987 RMK AO2 SLP115 T03060222
KVCT 142351Z 16016KT 10SM CLR 32/23 A2987 RMK AO2 SLP112 T03220233 10367 20322 55003
KVCT 142251Z 16013KT 10SM CLR 34/24 A2987 RMK AO2 SLP110 T03440239

METAR Board
Radar Display
Forecast Discussion
For situational awareness. Not to be used for flight planning purposes.